createdAt,value
2018-07-28T00:02:36.862Z,13
2018-07-28T00:07:38.684Z,14
2018-07-28T00:12:41.175Z,13
2018-07-28T00:17:43.520Z,14
2018-07-28T00:22:46.085Z,12
2018-07-28T00:27:48.828Z,12
2018-07-28T00:32:51.155Z,12
2018-07-28T00:37:53.288Z,12
2018-07-28T00:42:55.754Z,12
2018-07-28T00:47:58.188Z,13
2018-07-28T00:53:00.644Z,13
2018-07-28T00:58:03.099Z,11
2018-07-28T01:03:05.527Z,12
2018-07-28T01:08:08.029Z,12
2018-07-28T01:13:10.410Z,14
2018-07-28T01:18:12.953Z,13
2018-07-28T01:23:15.332Z,14
2018-07-28T01:28:17.767Z,13
2018-07-28T01:33:20.421Z,13
2018-07-28T01:38:22.572Z,13
2018-07-28T01:43:25.033Z,13
2018-07-28T01:48:27.496Z,13
2018-07-28T01:53:29.992Z,14
2018-07-28T01:58:32.349Z,13
2018-07-28T02:03:34.801Z,13
2018-07-28T02:08:37.279Z,14
2018-07-28T02:13:39.788Z,14
2018-07-28T02:18:42.096Z,14
2018-07-28T02:23:44.546Z,13
2018-07-28T02:28:47.204Z,15
2018-07-28T02:33:49.712Z,14
2018-07-28T02:38:52.342Z,15
2018-07-28T02:43:54.431Z,16
2018-07-28T02:48:56.805Z,15
2018-07-28T02:53:59.230Z,14
2018-07-28T02:59:01.975Z,15
2018-07-28T03:04:04.145Z,15
2018-07-28T03:09:06.507Z,14
2018-07-28T03:14:09.469Z,14
2018-07-28T03:19:11.450Z,14
2018-07-28T03:24:14.128Z,15
2018-07-28T03:29:16.303Z,15
2018-07-28T03:34:18.710Z,15
2018-07-28T03:39:21.190Z,14
2018-07-28T03:44:23.810Z,14
2018-07-28T03:49:26.094Z,15
2018-07-28T03:54:28.870Z,15
2018-07-28T03:59:30.940Z,14
2018-07-28T04:04:33.643Z,15
2018-07-28T04:09:35.791Z,15
2018-07-28T04:14:38.262Z,16
2018-07-28T04:24:43.186Z,15
2018-07-28T04:29:45.723Z,15
2018-07-28T04:34:48.008Z,14
2018-07-28T04:39:50.471Z,14
2018-07-28T04:44:52.925Z,15
2018-07-28T04:49:55.541Z,16
2018-07-28T04:54:57.773Z,15
2018-07-28T05:00:00.264Z,14
2018-07-28T05:05:02.694Z,14
2018-07-28T05:10:05.895Z,14
2018-07-28T05:15:07.798Z,14
2018-07-28T05:20:10.598Z,15
2018-07-28T05:25:12.527Z,12
2018-07-28T05:30:15.043Z,11
2018-07-28T05:35:17.284Z,10
2018-07-28T05:40:19.770Z,10
2018-07-28T05:45:22.490Z,9
2018-07-28T05:50:24.889Z,9
2018-07-28T05:55:27.087Z,8
2018-07-28T06:00:29.552Z,8
2018-07-28T06:05:32.011Z,8
2018-07-28T06:10:34.426Z,8
2018-07-28T06:15:37.049Z,7
2018-07-28T06:20:39.349Z,8
2018-07-28T06:30:44.240Z,8
2018-07-28T06:35:46.626Z,8
2018-07-28T06:40:49.078Z,8
2018-07-28T06:45:51.528Z,8
2018-07-28T06:50:53.964Z,8
2018-07-28T06:55:56.504Z,7
2018-07-28T07:00:58.915Z,7
2018-07-28T07:06:01.297Z,7
2018-07-28T07:11:03.911Z,8
2018-07-28T07:16:06.173Z,7
2018-07-28T07:21:08.615Z,7
2018-07-28T07:26:11.074Z,8
2018-07-28T07:31:13.659Z,8
2018-07-28T07:36:16.051Z,7
2018-07-28T07:41:18.378Z,7
2018-07-28T07:46:20.891Z,7
2018-07-28T07:51:23.255Z,6
2018-07-28T07:56:25.706Z,6
2018-07-28T08:01:28.228Z,6
2018-07-28T08:06:30.688Z,6
2018-07-28T08:11:33.030Z,6
2018-07-28T08:16:35.753Z,6
2018-07-28T08:21:38.034Z,6
2018-07-28T08:26:40.381Z,5
2018-07-28T08:31:42.806Z,5
2018-07-28T08:36:45.307Z,5
2018-07-28T08:41:47.873Z,5
2018-07-28T08:46:50.151Z,5
2018-07-28T08:51:52.740Z,5
2018-07-28T08:56:55.012Z,5
2018-07-28T09:01:57.460Z,4
